sensor_id;sensor_type;location;lat;lon;timestamp;temperature;humidity
30534;DHT22;17318;52.390;9.754;2023-08-20T00:00:13;24.00;99.90
30534;DHT22;17318;52.390;9.754;2023-08-20T00:02:39;24.00;99.90
30534;DHT22;17318;52.390;9.754;2023-08-20T00:05:06;24.00;99.90
30534;DHT22;17318;52.390;9.754;2023-08-20T00:07:32;24.00;99.90
30534;DHT22;17318;52.390;9.754;2023-08-20T00:09:58;23.90;99.90
30534;DHT22;17318;52.390;9.754;2023-08-20T00:12:24;24.00;99.90
30534;DHT22;17318;52.390;9.754;2023-08-20T00:14:55;23.90;99.90
30534;DHT22;17318;52.390;9.754;2023-08-20T00:17:21;23.90;99.90
30534;DHT22;17318;52.390;9.754;2023-08-20T00:19:48;23.80;99.90
30534;DHT22;17318;52.390;9.754;2023-08-20T00:22:14;23.70;99.90
30534;DHT22;17318;52.390;9.754;2023-08-20T00:24:40;23.80;99.90
30534;DHT22;17318;52.390;9.754;2023-08-20T00:27:06;23.70;99.90
30534;DHT22;17318;52.390;9.754;2023-08-20T00:29:31;23.70;99.90
30534;DHT22;17318;52.390;9.754;2023-08-20T00:31:57;23.70;99.90
30534;DHT22;17318;52.390;9.754;2023-08-20T00:34:22;23.60;99.90
30534;DHT22;17318;52.390;9.754;2023-08-20T00:36:48;23.60;99.90
30534;DHT22;17318;52.390;9.754;2023-08-20T00:39:14;23.60;99.90
30534;DHT22;17318;52.390;9.754;2023-08-20T00:41:40;23.50;99.90
30534;DHT22;17318;52.390;9.754;2023-08-20T00:44:06;23.40;99.90
30534;DHT22;17318;52.390;9.754;2023-08-20T00:46:31;23.40;99.90
30534;DHT22;17318;52.390;9.754;2023-08-20T00:48:57;23.40;99.90
30534;DHT22;17318;52.390;9.754;2023-08-20T00:51:23;23.40;99.90
30534;DHT22;17318;52.390;9.754;2023-08-20T00:53:49;23.20;99.90
30534;DHT22;17318;52.390;9.754;2023-08-20T00:56:15;23.20;99.90
30534;DHT22;17318;52.390;9.754;2023-08-20T00:58:41;23.30;99.90
30534;DHT22;17318;52.390;9.754;2023-08-20T01:01:06;23.30;99.90
30534;DHT22;17318;52.390;9.754;2023-08-20T01:03:32;23.30;99.90
30534;DHT22;17318;52.390;9.754;2023-08-20T01:06:08;23.30;99.90
30534;DHT22;17318;52.390;9.754;2023-08-20T01:08:37;23.30;99.90
30534;DHT22;17318;52.390;9.754;2023-08-20T01:11:10;23.20;99.90
30534;DHT22;17318;52.390;9.754;2023-08-20T01:13:37;23.10;99.90
30534;DHT22;17318;52.390;9.754;2023-08-20T01:16:03;23.10;99.90
30534;DHT22;17318;52.390;9.754;2023-08-20T01:18:29;23.20;99.90
30534;DHT22;17318;52.390;9.754;2023-08-20T01:20:59;23.20;99.90
30534;DHT22;17318;52.390;9.754;2023-08-20T01:26:07;23.10;99.90
30534;DHT22;17318;52.390;9.754;2023-08-20T01:28:33;23.10;99.90
30534;DHT22;17318;52.390;9.754;2023-08-20T01:31:00;22.90;99.90
30534;DHT22;17318;52.390;9.754;2023-08-20T01:33:28;22.90;99.90
30534;DHT22;17318;52.390;9.754;2023-08-20T01:35:54;22.90;99.90
30534;DHT22;17318;52.390;9.754;2023-08-20T01:38:20;22.90;99.90
30534;DHT22;17318;52.390;9.754;2023-08-20T01:40:46;22.90;99.90
30534;DHT22;17318;52.390;9.754;2023-08-20T01:43:12;22.90;99.90
30534;DHT22;17318;52.390;9.754;2023-08-20T01:45:38;22.90;99.90
30534;DHT22;17318;52.390;9.754;2023-08-20T01:48:03;22.80;99.90
30534;DHT22;17318;52.390;9.754;2023-08-20T01:50:29;22.80;99.90
30534;DHT22;17318;52.390;9.754;2023-08-20T01:52:55;22.80;99.90
30534;DHT22;17318;52.390;9.754;2023-08-20T01:55:20;22.80;99.90
30534;DHT22;17318;52.390;9.754;2023-08-20T01:57:46;22.80;99.90
30534;DHT22;17318;52.390;9.754;2023-08-20T02:00:12;22.80;99.90
30534;DHT22;17318;52.390;9.754;2023-08-20T02:02:38;22.80;99.90
30534;DHT22;17318;52.390;9.754;2023-08-20T02:05:03;22.80;99.90
30534;DHT22;17318;52.390;9.754;2023-08-20T02:07:29;22.80;99.90
30534;DHT22;17318;52.390;9.754;2023-08-20T02:09:55;22.80;99.90
30534;DHT22;17318;52.390;9.754;2023-08-20T02:12:20;22.70;99.90
30534;DHT22;17318;52.390;9.754;2023-08-20T02:14:46;22.70;99.90
30534;DHT22;17318;52.390;9.754;2023-08-20T02:17:11;22.60;99.90
30534;DHT22;17318;52.390;9.754;2023-08-20T02:19:37;22.50;99.90
30534;DHT22;17318;52.390;9.754;2023-08-20T02:22:03;22.40;99.90
30534;DHT22;17318;52.390;9.754;2023-08-20T02:24:29;22.40;99.90
30534;DHT22;17318;52.390;9.754;2023-08-20T02:26:55;22.40;99.90
30534;DHT22;17318;52.390;9.754;2023-08-20T02:29:20;22.30;99.90
30534;DHT22;17318;52.390;9.754;2023-08-20T02:31:46;22.30;99.90
30534;DHT22;17318;52.390;9.754;2023-08-20T02:34:11;22.30;99.90
30534;DHT22;17318;52.390;9.754;2023-08-20T02:36:37;22.20;99.90
30534;DHT22;17318;52.390;9.754;2023-08-20T02:39:03;22.20;99.90
30534;DHT22;17318;52.390;9.754;2023-08-20T02:41:30;22.10;99.90
30534;DHT22;17318;52.390;9.754;2023-08-20T02:43:56;22.00;99.90
30534;DHT22;17318;52.390;9.754;2023-08-20T02:46:21;21.90;99.90
30534;DHT22;17318;52.390;9.754;2023-08-20T02:48:47;22.00;99.90
30534;DHT22;17318;52.390;9.754;2023-08-20T02:51:12;22.00;99.90
30534;DHT22;17318;52.390;9.754;2023-08-20T02:53:38;21.90;99.90
30534;DHT22;17318;52.390;9.754;2023-08-20T02:56:03;22.00;99.90
30534;DHT22;17318;52.390;9.754;2023-08-20T02:58:29;21.90;99.90
30534;DHT22;17318;52.390;9.754;2023-08-20T03:00:55;21.90;99.90
30534;DHT22;17318;52.390;9.754;2023-08-20T03:03:20;21.90;99.90
30534;DHT22;17318;52.390;9.754;2023-08-20T03:05:46;21.90;99.90
30534;DHT22;17318;52.390;9.754;2023-08-20T03:08:11;21.90;99.90
30534;DHT22;17318;52.390;9.754;2023-08-20T03:10:37;21.90;99.90
30534;DHT22;17318;52.390;9.754;2023-08-20T03:13:02;21.90;99.90
30534;DHT22;17318;52.390;9.754;2023-08-20T03:15:29;21.80;99.90
30534;DHT22;17318;52.390;9.754;2023-08-20T03:17:54;21.80;99.90
30534;DHT22;17318;52.390;9.754;2023-08-20T03:20:20;21.80;99.90
30534;DHT22;17318;52.390;9.754;2023-08-20T03:22:45;21.80;99.90
30534;DHT22;17318;52.390;9.754;2023-08-20T03:25:11;21.80;99.90
30534;DHT22;17318;52.390;9.754;2023-08-20T03:27:36;21.80;99.90
30534;DHT22;17318;52.390;9.754;2023-08-20T03:30:02;21.80;99.90
30534;DHT22;17318;52.390;9.754;2023-08-20T03:32:28;21.80;99.90
30534;DHT22;17318;52.390;9.754;2023-08-20T03:34:53;21.70;99.90
30534;DHT22;17318;52.390;9.754;2023-08-20T03:37:21;21.70;99.90
30534;DHT22;17318;52.390;9.754;2023-08-20T03:39:47;21.70;99.90
30534;DHT22;17318;52.390;9.754;2023-08-20T03:42:12;21.60;99.90
30534;DHT22;17318;52.390;9.754;2023-08-20T03:44:38;21.60;99.90
30534;DHT22;17318;52.390;9.754;2023-08-20T03:47:04;21.60;99.90
30534;DHT22;17318;52.390;9.754;2023-08-20T03:49:29;21.50;99.90
30534;DHT22;17318;52.390;9.754;2023-08-20T03:51:55;21.50;99.90
30534;DHT22;17318;52.390;9.754;2023-08-20T03:54:21;21.40;99.90
30534;DHT22;17318;52.390;9.754;2023-08-20T03:56:46;21.30;99.90
30534;DHT22;17318;52.390;9.754;2023-08-20T03:59:12;21.30;99.90
30534;DHT22;17318;52.390;9.754;2023-08-20T04:01:37;21.30;99.90
30534;DHT22;17318;52.390;9.754;2023-08-20T04:04:06;21.30;99.90
30534;DHT22;17318;52.390;9.754;2023-08-20T04:06:31;21.30;99.90
30534;DHT22;17318;52.390;9.754;2023-08-20T04:08:57;21.30;99.90
30534;DHT22;17318;52.390;9.754;2023-08-20T04:11:22;21.30;99.90
30534;DHT22;17318;52.390;9.754;2023-08-20T04:13:48;21.20;99.90
30534;DHT22;17318;52.390;9.754;2023-08-20T04:16:14;21.20;99.90
30534;DHT22;17318;52.390;9.754;2023-08-20T04:18:39;21.20;99.90
30534;DHT22;17318;52.390;9.754;2023-08-20T04:21:05;21.20;99.90
30534;DHT22;17318;52.390;9.754;2023-08-20T04:23:32;21.20;99.90
30534;DHT22;17318;52.390;9.754;2023-08-20T04:25:57;21.20;99.90
30534;DHT22;17318;52.390;9.754;2023-08-20T04:28:23;21.10;99.90
30534;DHT22;17318;52.390;9.754;2023-08-20T04:30:51;21.10;99.90
30534;DHT22;17318;52.390;9.754;2023-08-20T04:33:19;21.10;99.90
30534;DHT22;17318;52.390;9.754;2023-08-20T04:35:44;21.00;99.90
30534;DHT22;17318;52.390;9.754;2023-08-20T04:38:10;21.00;99.90
30534;DHT22;17318;52.390;9.754;2023-08-20T04:40:35;21.00;99.90
30534;DHT22;17318;52.390;9.754;2023-08-20T04:43:01;21.00;99.90
30534;DHT22;17318;52.390;9.754;2023-08-20T04:45:26;21.00;99.90
30534;DHT22;17318;52.390;9.754;2023-08-20T04:47:52;21.00;99.90
30534;DHT22;17318;52.390;9.754;2023-08-20T04:50:17;21.00;99.90
30534;DHT22;17318;52.390;9.754;2023-08-20T04:52:44;21.00;99.90
30534;DHT22;17318;52.390;9.754;2023-08-20T04:55:09;21.00;99.90
30534;DHT22;17318;52.390;9.754;2023-08-20T04:57:35;21.00;99.90
30534;DHT22;17318;52.390;9.754;2023-08-20T05:00:00;21.00;99.90
30534;DHT22;17318;52.390;9.754;2023-08-20T05:02:26;20.90;99.90
30534;DHT22;17318;52.390;9.754;2023-08-20T05:04:51;20.90;99.90
30534;DHT22;17318;52.390;9.754;2023-08-20T05:07:17;21.00;99.90
30534;DHT22;17318;52.390;9.754;2023-08-20T05:09:43;21.00;99.90
30534;DHT22;17318;52.390;9.754;2023-08-20T05:12:08;21.00;99.90
30534;DHT22;17318;52.390;9.754;2023-08-20T05:14:34;21.00;99.90
30534;DHT22;17318;52.390;9.754;2023-08-20T05:16:59;21.10;99.90
30534;DHT22;17318;52.390;9.754;2023-08-20T05:19:25;21.00;99.90
30534;DHT22;17318;52.390;9.754;2023-08-20T05:21:51;21.10;99.90
30534;DHT22;17318;52.390;9.754;2023-08-20T05:24:18;21.10;99.90
30534;DHT22;17318;52.390;9.754;2023-08-20T05:26:43;21.20;99.90
30534;DHT22;17318;52.390;9.754;2023-08-20T05:29:08;21.30;99.90
30534;DHT22;17318;52.390;9.754;2023-08-20T05:31:34;21.30;99.90
30534;DHT22;17318;52.390;9.754;2023-08-20T05:34:00;21.40;99.90
30534;DHT22;17318;52.390;9.754;2023-08-20T05:36:25;21.40;99.90
30534;DHT22;17318;52.390;9.754;2023-08-20T05:38:51;21.40;99.90
30534;DHT22;17318;52.390;9.754;2023-08-20T05:41:16;21.40;99.90
30534;DHT22;17318;52.390;9.754;2023-08-20T05:43:42;21.50;99.90
30534;DHT22;17318;52.390;9.754;2023-08-20T05:46:07;21.40;99.90
30534;DHT22;17318;52.390;9.754;2023-08-20T05:48:33;21.40;99.90
30534;DHT22;17318;52.390;9.754;2023-08-20T05:50:58;21.40;99.90
30534;DHT22;17318;52.390;9.754;2023-08-20T05:53:24;21.50;99.90
30534;DHT22;17318;52.390;9.754;2023-08-20T05:55:49;21.60;99.90
30534;DHT22;17318;52.390;9.754;2023-08-20T05:58:15;21.60;99.90
30534;DHT22;17318;52.390;9.754;2023-08-20T06:00:41;21.60;99.90
30534;DHT22;17318;52.390;9.754;2023-08-20T06:03:07;21.60;99.90
30534;DHT22;17318;52.390;9.754;2023-08-20T06:05:33;21.60;99.90
30534;DHT22;17318;52.390;9.754;2023-08-20T06:07:58;21.70;99.90
30534;DHT22;17318;52.390;9.754;2023-08-20T06:10:24;21.70;99.90
30534;DHT22;17318;52.390;9.754;2023-08-20T06:12:49;21.70;99.90
30534;DHT22;17318;52.390;9.754;2023-08-20T06:15:15;21.70;99.90
30534;DHT22;17318;52.390;9.754;2023-08-20T06:17:41;21.60;99.90
30534;DHT22;17318;52.390;9.754;2023-08-20T06:20:06;21.70;99.90
30534;DHT22;17318;52.390;9.754;2023-08-20T06:22:34;21.70;99.90
30534;DHT22;17318;52.390;9.754;2023-08-20T06:24:59;21.70;99.90
30534;DHT22;17318;52.390;9.754;2023-08-20T06:27:25;21.80;99.90
30534;DHT22;17318;52.390;9.754;2023-08-20T06:29:50;21.80;99.90
30534;DHT22;17318;52.390;9.754;2023-08-20T06:32:16;21.90;99.90
30534;DHT22;17318;52.390;9.754;2023-08-20T06:34:41;21.90;99.90
30534;DHT22;17318;52.390;9.754;2023-08-20T06:37:07;22.00;99.90
30534;DHT22;17318;52.390;9.754;2023-08-20T06:39:33;22.10;99.90
30534;DHT22;17318;52.390;9.754;2023-08-20T06:41:58;22.10;99.90
30534;DHT22;17318;52.390;9.754;2023-08-20T06:44:24;22.10;99.90
30534;DHT22;17318;52.390;9.754;2023-08-20T06:46:49;22.20;99.90
30534;DHT22;17318;52.390;9.754;2023-08-20T06:49:15;22.20;99.90
30534;DHT22;17318;52.390;9.754;2023-08-20T06:51:40;22.20;99.90
30534;DHT22;17318;52.390;9.754;2023-08-20T06:54:06;22.20;99.90
30534;DHT22;17318;52.390;9.754;2023-08-20T06:56:32;22.20;99.90
30534;DHT22;17318;52.390;9.754;2023-08-20T06:58:58;22.30;99.90
30534;DHT22;17318;52.390;9.754;2023-08-20T07:01:23;22.30;99.90
30534;DHT22;17318;52.390;9.754;2023-08-20T07:03:49;22.30;99.90
30534;DHT22;17318;52.390;9.754;2023-08-20T07:06:14;22.40;99.90
30534;DHT22;17318;52.390;9.754;2023-08-20T07:08:41;22.40;99.90
30534;DHT22;17318;52.390;9.754;2023-08-20T07:11:07;22.40;99.90
30534;DHT22;17318;52.390;9.754;2023-08-20T07:13:32;22.40;99.90
30534;DHT22;17318;52.390;9.754;2023-08-20T07:15:58;22.50;99.90
30534;DHT22;17318;52.390;9.754;2023-08-20T07:18:23;22.50;99.90
30534;DHT22;17318;52.390;9.754;2023-08-20T07:20:49;22.60;99.90
30534;DHT22;17318;52.390;9.754;2023-08-20T07:23:15;22.70;99.90
30534;DHT22;17318;52.390;9.754;2023-08-20T07:25:41;22.80;99.90
30534;DHT22;17318;52.390;9.754;2023-08-20T07:28:09;22.80;99.90
30534;DHT22;17318;52.390;9.754;2023-08-20T07:30:35;22.90;99.90
30534;DHT22;17318;52.390;9.754;2023-08-20T07:33:01;22.90;99.90
30534;DHT22;17318;52.390;9.754;2023-08-20T07:35:26;23.00;99.90
30534;DHT22;17318;52.390;9.754;2023-08-20T07:37:52;23.10;99.90
30534;DHT22;17318;52.390;9.754;2023-08-20T07:40:18;23.10;99.90
30534;DHT22;17318;52.390;9.754;2023-08-20T07:42:43;23.20;99.90
30534;DHT22;17318;52.390;9.754;2023-08-20T07:45:09;23.30;99.90
30534;DHT22;17318;52.390;9.754;2023-08-20T07:47:38;23.40;99.90
30534;DHT22;17318;52.390;9.754;2023-08-20T07:50:04;23.50;99.90
30534;DHT22;17318;52.390;9.754;2023-08-20T07:52:30;23.60;99.90
30534;DHT22;17318;52.390;9.754;2023-08-20T07:54:56;23.60;99.90
30534;DHT22;17318;52.390;9.754;2023-08-20T07:57:21;23.70;99.90
30534;DHT22;17318;52.390;9.754;2023-08-20T07:59:51;23.90;99.90
30534;DHT22;17318;52.390;9.754;2023-08-20T08:02:17;24.10;99.90
30534;DHT22;17318;52.390;9.754;2023-08-20T08:04:43;24.10;99.90
30534;DHT22;17318;52.390;9.754;2023-08-20T08:07:09;24.20;99.40
30534;DHT22;17318;52.390;9.754;2023-08-20T08:09:35;24.30;99.50
30534;DHT22;17318;52.390;9.754;2023-08-20T08:12:00;24.50;99.50
30534;DHT22;17318;52.390;9.754;2023-08-20T08:14:26;24.50;99.10
30534;DHT22;17318;52.390;9.754;2023-08-20T08:16:52;24.70;98.60
30534;DHT22;17318;52.390;9.754;2023-08-20T08:19:18;24.90;98.50
30534;DHT22;17318;52.390;9.754;2023-08-20T08:21:43;25.10;98.00
30534;DHT22;17318;52.390;9.754;2023-08-20T08:24:10;25.50;97.90
30534;DHT22;17318;52.390;9.754;2023-08-20T08:26:35;26.00;97.10
30534;DHT22;17318;52.390;9.754;2023-08-20T08:29:01;26.90;95.40
30534;DHT22;17318;52.390;9.754;2023-08-20T08:31:27;27.90;95.00
30534;DHT22;17318;52.390;9.754;2023-08-20T08:33:52;28.90;92.20
30534;DHT22;17318;52.390;9.754;2023-08-20T08:36:18;29.80;90.90
30534;DHT22;17318;52.390;9.754;2023-08-20T08:38:44;30.40;91.00
30534;DHT22;17318;52.390;9.754;2023-08-20T08:41:10;31.00;88.70
30534;DHT22;17318;52.390;9.754;2023-08-20T08:43:37;31.70;87.00
30534;DHT22;17318;52.390;9.754;2023-08-20T08:46:03;32.50;88.80
30534;DHT22;17318;52.390;9.754;2023-08-20T08:48:31;32.90;84.50
30534;DHT22;17318;52.390;9.754;2023-08-20T08:50:57;33.30;82.70
30534;DHT22;17318;52.390;9.754;2023-08-20T08:53:23;33.40;79.30
30534;DHT22;17318;52.390;9.754;2023-08-20T08:55:50;33.70;81.10
30534;DHT22;17318;52.390;9.754;2023-08-20T08:58:15;35.30;78.50
30534;DHT22;17318;52.390;9.754;2023-08-20T09:00:41;35.30;74.50
30534;DHT22;17318;52.390;9.754;2023-08-20T09:03:06;35.80;74.30
30534;DHT22;17318;52.390;9.754;2023-08-20T09:05:32;35.80;71.20
30534;DHT22;17318;52.390;9.754;2023-08-20T09:07:57;36.30;70.50
30534;DHT22;17318;52.390;9.754;2023-08-20T09:10:26;36.40;70.70
30534;DHT22;17318;52.390;9.754;2023-08-20T09:12:54;37.50;70.20
30534;DHT22;17318;52.390;9.754;2023-08-20T09:15:19;37.40;64.70
30534;DHT22;17318;52.390;9.754;2023-08-20T09:17:46;37.70;66.10
30534;DHT22;17318;52.390;9.754;2023-08-20T09:20:11;38.20;63.90
30534;DHT22;17318;52.390;9.754;2023-08-20T09:22:37;38.60;62.00
30534;DHT22;17318;52.390;9.754;2023-08-20T09:25:03;38.90;59.70
30534;DHT22;17318;52.390;9.754;2023-08-20T09:27:28;38.90;61.50
30534;DHT22;17318;52.390;9.754;2023-08-20T09:29:55;38.80;58.10
30534;DHT22;17318;52.390;9.754;2023-08-20T09:32:21;38.80;57.00
30534;DHT22;17318;52.390;9.754;2023-08-20T09:34:48;38.50;56.90
30534;DHT22;17318;52.390;9.754;2023-08-20T09:37:14;38.30;57.40
30534;DHT22;17318;52.390;9.754;2023-08-20T09:39:40;38.60;56.50
30534;DHT22;17318;52.390;9.754;2023-08-20T09:42:06;39.90;56.30
30534;DHT22;17318;52.390;9.754;2023-08-20T09:44:33;39.80;54.70
30534;DHT22;17318;52.390;9.754;2023-08-20T09:47:02;40.00;53.40
30534;DHT22;17318;52.390;9.754;2023-08-20T09:49:29;40.70;54.20
30534;DHT22;17318;52.390;9.754;2023-08-20T09:51:55;40.20;52.20
30534;DHT22;17318;52.390;9.754;2023-08-20T09:54:25;40.60;53.10
30534;DHT22;17318;52.390;9.754;2023-08-20T09:56:54;40.30;51.50
30534;DHT22;17318;52.390;9.754;2023-08-20T09:59:23;40.50;51.80
30534;DHT22;17318;52.390;9.754;2023-08-20T10:01:49;40.10;51.90
30534;DHT22;17318;52.390;9.754;2023-08-20T10:04:16;40.20;50.60
30534;DHT22;17318;52.390;9.754;2023-08-20T10:06:42;40.40;50.50
30534;DHT22;17318;52.390;9.754;2023-08-20T10:09:08;40.10;51.60
30534;DHT22;17318;52.390;9.754;2023-08-20T10:11:34;40.20;51.70
30534;DHT22;17318;52.390;9.754;2023-08-20T10:13:59;40.60;50.20
30534;DHT22;17318;52.390;9.754;2023-08-20T10:16:27;41.60;47.80
30534;DHT22;17318;52.390;9.754;2023-08-20T10:18:52;40.80;47.30
30534;DHT22;17318;52.390;9.754;2023-08-20T10:21:23;39.10;48.80
30534;DHT22;17318;52.390;9.754;2023-08-20T10:23:49;38.40;51.20
30534;DHT22;17318;52.390;9.754;2023-08-20T10:26:14;38.40;50.20
30534;DHT22;17318;52.390;9.754;2023-08-20T10:28:42;37.70;51.40
30534;DHT22;17318;52.390;9.754;2023-08-20T10:31:11;37.40;51.40
30534;DHT22;17318;52.390;9.754;2023-08-20T10:36:16;37.30;52.30
30534;DHT22;17318;52.390;9.754;2023-08-20T10:38:44;37.80;52.80
30534;DHT22;17318;52.390;9.754;2023-08-20T10:41:10;38.90;53.90
30534;DHT22;17318;52.390;9.754;2023-08-20T10:43:39;39.00;51.30
30534;DHT22;17318;52.390;9.754;2023-08-20T10:46:06;37.60;53.20
30534;DHT22;17318;52.390;9.754;2023-08-20T10:48:32;37.00;52.90
30534;DHT22;17318;52.390;9.754;2023-08-20T10:51:24;36.70;53.00
30534;DHT22;17318;52.390;9.754;2023-08-20T10:53:49;35.50;54.00
30534;DHT22;17318;52.390;9.754;2023-08-20T10:56:42;34.70;55.50
30534;DHT22;17318;52.390;9.754;2023-08-20T10:59:20;34.30;56.20
30534;DHT22;17318;52.390;9.754;2023-08-20T11:01:52;33.90;57.30
30534;DHT22;17318;52.390;9.754;2023-08-20T11:04:19;33.90;57.70
30534;DHT22;17318;52.390;9.754;2023-08-20T11:06:46;33.90;57.40
30534;DHT22;17318;52.390;9.754;2023-08-20T11:09:12;33.60;57.90
30534;DHT22;17318;52.390;9.754;2023-08-20T11:11:42;33.90;57.40
30534;DHT22;17318;52.390;9.754;2023-08-20T11:14:08;33.50;58.40
30534;DHT22;17318;52.390;9.754;2023-08-20T11:16:37;33.40;57.90
30534;DHT22;17318;52.390;9.754;2023-08-20T11:19:03;33.20;59.40
30534;DHT22;17318;52.390;9.754;2023-08-20T11:21:32;33.00;59.70
30534;DHT22;17318;52.390;9.754;2023-08-20T11:23:59;32.80;59.80
30534;DHT22;17318;52.390;9.754;2023-08-20T11:26:25;32.70;60.30
30534;DHT22;17318;52.390;9.754;2023-08-20T11:28:50;32.40;59.80
30534;DHT22;17318;52.390;9.754;2023-08-20T11:31:16;32.30;60.00
30534;DHT22;17318;52.390;9.754;2023-08-20T11:33:41;32.30;60.20
30534;DHT22;17318;52.390;9.754;2023-08-20T11:36:07;32.50;60.70
30534;DHT22;17318;52.390;9.754;2023-08-20T11:38:33;32.50;60.80
30534;DHT22;17318;52.390;9.754;2023-08-20T11:40:58;32.60;60.00
30534;DHT22;17318;52.390;9.754;2023-08-20T11:43:30;32.60;60.70
30534;DHT22;17318;52.390;9.754;2023-08-20T11:45:55;32.50;60.80
30534;DHT22;17318;52.390;9.754;2023-08-20T11:48:22;32.20;61.20
30534;DHT22;17318;52.390;9.754;2023-08-20T11:50:47;32.00;60.70
30534;DHT22;17318;52.390;9.754;2023-08-20T11:53:13;31.80;61.60
30534;DHT22;17318;52.390;9.754;2023-08-20T11:55:39;32.00;61.60
30534;DHT22;17318;52.390;9.754;2023-08-20T11:58:05;32.20;61.60
30534;DHT22;17318;52.390;9.754;2023-08-20T12:00:31;32.00;60.70
30534;DHT22;17318;52.390;9.754;2023-08-20T12:02:57;31.80;62.50
30534;DHT22;17318;52.390;9.754;2023-08-20T12:05:28;31.80;62.10
30534;DHT22;17318;52.390;9.754;2023-08-20T12:07:55;31.90;61.70
30534;DHT22;17318;52.390;9.754;2023-08-20T12:10:22;31.80;62.30
30534;DHT22;17318;52.390;9.754;2023-08-20T12:12:48;31.60;61.40
30534;DHT22;17318;52.390;9.754;2023-08-20T12:15:14;31.80;61.80
30534;DHT22;17318;52.390;9.754;2023-08-20T12:17:40;31.50;61.20
30534;DHT22;17318;52.390;9.754;2023-08-20T12:20:06;31.40;63.30
30534;DHT22;17318;52.390;9.754;2023-08-20T12:22:38;31.30;62.00
30534;DHT22;17318;52.390;9.754;2023-08-20T12:25:04;30.90;63.40
30534;DHT22;17318;52.390;9.754;2023-08-20T12:27:30;30.90;63.00
30534;DHT22;17318;52.390;9.754;2023-08-20T12:29:55;30.70;64.30
30534;DHT22;17318;52.390;9.754;2023-08-20T12:32:20;30.80;65.30
30534;DHT22;17318;52.390;9.754;2023-08-20T12:34:46;30.90;64.00
30534;DHT22;17318;52.390;9.754;2023-08-20T12:37:12;30.70;63.60
30534;DHT22;17318;52.390;9.754;2023-08-20T12:39:37;30.50;63.60
30534;DHT22;17318;52.390;9.754;2023-08-20T12:42:03;30.50;64.00
30534;DHT22;17318;52.390;9.754;2023-08-20T12:44:28;30.60;65.30
30534;DHT22;17318;52.390;9.754;2023-08-20T12:46:54;30.50;65.30
30534;DHT22;17318;52.390;9.754;2023-08-20T12:49:19;30.70;65.10
30534;DHT22;17318;52.390;9.754;2023-08-20T12:51:45;30.90;65.10
30534;DHT22;17318;52.390;9.754;2023-08-20T12:54:11;30.80;64.50
30534;DHT22;17318;52.390;9.754;2023-08-20T12:56:36;30.70;64.80
30534;DHT22;17318;52.390;9.754;2023-08-20T12:59:02;31.00;65.10
30534;DHT22;17318;52.390;9.754;2023-08-20T13:01:28;30.90;65.10
30534;DHT22;17318;52.390;9.754;2023-08-20T13:03:53;30.70;66.60
30534;DHT22;17318;52.390;9.754;2023-08-20T13:06:19;30.60;66.20
30534;DHT22;17318;52.390;9.754;2023-08-20T13:08:45;30.80;66.60
30534;DHT22;17318;52.390;9.754;2023-08-20T13:11:11;31.10;66.00
30534;DHT22;17318;52.390;9.754;2023-08-20T13:13:39;31.10;64.60
30534;DHT22;17318;52.390;9.754;2023-08-20T13:16:05;30.80;65.30
30534;DHT22;17318;52.390;9.754;2023-08-20T13:18:30;30.80;65.60
30534;DHT22;17318;52.390;9.754;2023-08-20T13:20:56;30.70;64.90
30534;DHT22;17318;52.390;9.754;2023-08-20T13:23:21;30.80;65.30
30534;DHT22;17318;52.390;9.754;2023-08-20T13:25:47;30.80;64.50
30534;DHT22;17318;52.390;9.754;2023-08-20T13:28:12;30.90;65.00
30534;DHT22;17318;52.390;9.754;2023-08-20T13:30:38;30.80;66.00
30534;DHT22;17318;52.390;9.754;2023-08-20T13:33:04;30.90;65.60
30534;DHT22;17318;52.390;9.754;2023-08-20T13:35:30;30.90;65.60
30534;DHT22;17318;52.390;9.754;2023-08-20T13:37:55;30.80;64.90
30534;DHT22;17318;52.390;9.754;2023-08-20T13:40:21;30.80;66.20
30534;DHT22;17318;52.390;9.754;2023-08-20T13:42:46;30.90;65.30
30534;DHT22;17318;52.390;9.754;2023-08-20T13:45:12;30.90;64.90
30534;DHT22;17318;52.390;9.754;2023-08-20T13:47:37;30.90;65.00
30534;DHT22;17318;52.390;9.754;2023-08-20T13:50:03;31.00;66.90
30534;DHT22;17318;52.390;9.754;2023-08-20T13:52:29;31.00;65.50
30534;DHT22;17318;52.390;9.754;2023-08-20T13:54:55;31.00;65.90
30534;DHT22;17318;52.390;9.754;2023-08-20T13:57:21;30.90;67.30
30534;DHT22;17318;52.390;9.754;2023-08-20T13:59:47;30.90;66.40
30534;DHT22;17318;52.390;9.754;2023-08-20T14:02:13;30.90;66.40
30534;DHT22;17318;52.390;9.754;2023-08-20T14:04:38;30.90;67.00
30534;DHT22;17318;52.390;9.754;2023-08-20T14:07:04;30.90;65.70
30534;DHT22;17318;52.390;9.754;2023-08-20T14:09:29;30.80;66.60
30534;DHT22;17318;52.390;9.754;2023-08-20T14:11:55;30.60;66.70
30534;DHT22;17318;52.390;9.754;2023-08-20T14:14:20;30.50;67.90
30534;DHT22;17318;52.390;9.754;2023-08-20T14:16:46;30.50;68.50
30534;DHT22;17318;52.390;9.754;2023-08-20T14:19:11;30.60;67.80
30534;DHT22;17318;52.390;9.754;2023-08-20T14:21:37;30.70;67.90
30534;DHT22;17318;52.390;9.754;2023-08-20T14:24:03;30.60;67.80
30534;DHT22;17318;52.390;9.754;2023-08-20T14:26:28;30.70;67.10
30534;DHT22;17318;52.390;9.754;2023-08-20T14:28:55;30.40;69.10
30534;DHT22;17318;52.390;9.754;2023-08-20T14:31:20;30.40;68.30
30534;DHT22;17318;52.390;9.754;2023-08-20T14:33:46;30.40;69.50
30534;DHT22;17318;52.390;9.754;2023-08-20T14:36:11;30.50;67.90
30534;DHT22;17318;52.390;9.754;2023-08-20T14:38:37;30.30;70.40
30534;DHT22;17318;52.390;9.754;2023-08-20T14:41:02;30.20;68.50
30534;DHT22;17318;52.390;9.754;2023-08-20T14:43:29;30.30;70.20
30534;DHT22;17318;52.390;9.754;2023-08-20T14:45:54;30.30;71.30
30534;DHT22;17318;52.390;9.754;2023-08-20T14:48:21;30.30;70.60
30534;DHT22;17318;52.390;9.754;2023-08-20T14:50:46;30.20;70.40
30534;DHT22;17318;52.390;9.754;2023-08-20T14:53:13;30.10;70.60
30534;DHT22;17318;52.390;9.754;2023-08-20T14:55:39;30.20;70.00
30534;DHT22;17318;52.390;9.754;2023-08-20T14:58:04;30.10;69.80
30534;DHT22;17318;52.390;9.754;2023-08-20T15:00:33;30.00;70.30
30534;DHT22;17318;52.390;9.754;2023-08-20T15:02:59;30.00;69.90
30534;DHT22;17318;52.390;9.754;2023-08-20T15:05:24;30.00;70.90
30534;DHT22;17318;52.390;9.754;2023-08-20T15:07:50;30.00;70.60
30534;DHT22;17318;52.390;9.754;2023-08-20T15:10:16;30.00;72.60
30534;DHT22;17318;52.390;9.754;2023-08-20T15:12:41;30.00;72.40
30534;DHT22;17318;52.390;9.754;2023-08-20T15:15:07;29.90;72.00
30534;DHT22;17318;52.390;9.754;2023-08-20T15:17:36;29.80;71.90
30534;DHT22;17318;52.390;9.754;2023-08-20T15:20:01;29.70;72.30
30534;DHT22;17318;52.390;9.754;2023-08-20T15:22:30;29.70;72.50
30534;DHT22;17318;52.390;9.754;2023-08-20T15:24:56;29.80;72.60
30534;DHT22;17318;52.390;9.754;2023-08-20T15:27:23;29.70;72.80